Time;durP1;ratioP1;P1;durP2;ratioP2;P2;SDS_P1;SDS_P2;PMS_P1;PMS_P2;Temp;Humidity;BMP_temperature;BMP_pressure;BME280_temperature;BME280_humidity;BME280_pressure;Samples;Min_cycle;Max_cycle;Signal;HPM_P1;HPM_P2
2022/05/25 00:02:06;;;;;;;6.47;2.00;;;;;;;12.65;74.59;99932.25;5095098;28;20078;-51
2022/05/25 00:04:33;;;;;;;2.35;1.80;;;;;;;12.64;74.59;99930.63;5094802;28;20070;-54
2022/05/25 00:07:01;;;;;;;3.42;2.30;;;;;;;12.59;74.98;99939.19;5094309;28;20067;-51
2022/05/25 00:09:29;;;;;;;3.65;2.17;;;;;;;12.54;75.24;99940.22;5094874;28;20368;-54
2022/05/25 00:11:56;;;;;;;3.20;2.40;;;;;;;12.50;75.33;99941.25;5095029;28;20096;-52
2022/05/25 00:14:25;;;;;;;3.53;2.10;;;;;;;12.48;75.13;99944.38;5095102;28;20055;-53
2022/05/25 00:16:52;;;;;;;3.90;2.10;;;;;;;12.41;75.35;99946.91;5094637;28;20079;-52
2022/05/25 00:22:04;;;;;;;4.20;2.05;;;;;;;12.37;75.23;99959.91;5100819;28;20503;-52
2022/05/25 00:24:32;;;;;;;3.30;2.38;;;;;;;12.35;75.76;99957.44;5094464;28;20052;-52
2022/05/25 00:26:59;;;;;;;3.88;2.00;;;;;;;12.32;75.88;99946.13;5094621;28;20052;-53
2022/05/25 00:29:28;;;;;;;3.15;2.42;;;;;;;12.26;75.66;99953.88;5094443;28;20048;-52
2022/05/25 00:31:55;;;;;;;4.60;2.60;;;;;;;12.23;75.88;99956.56;5094276;28;20409;-52
2022/05/25 00:34:22;;;;;;;6.97;2.67;;;;;;;12.23;75.71;99964.94;5094138;28;20060;-54
2022/05/25 00:36:50;;;;;;;4.55;2.63;;;;;;;12.19;76.23;99960.00;5094446;28;20058;-52
2022/05/25 00:39:17;;;;;;;4.70;2.38;;;;;;;12.17;75.90;99970.69;5094424;28;20063;-52
2022/05/25 00:41:45;;;;;;;3.85;2.25;;;;;;;12.16;75.50;99968.25;5094205;28;20047;-52
2022/05/25 00:44:12;;;;;;;3.70;2.58;;;;;;;12.12;75.77;99975.66;5093999;28;20059;-52
2022/05/25 00:46:41;;;;;;;3.65;2.58;;;;;;;12.08;76.06;99972.72;5093877;28;20052;-52
2022/05/25 00:49:22;;;;;;;3.50;2.63;;;;;;;12.08;76.22;99969.13;5094267;28;20066;-52
2022/05/25 00:51:53;;;;;;;4.75;2.70;;;;;;;12.02;75.79;99982.44;5094250;28;20059;-53
2022/05/25 00:54:24;;;;;;;4.20;2.72;;;;;;;11.97;75.87;99975.09;5094125;28;20056;-52
2022/05/25 00:56:57;;;;;;;5.07;2.65;;;;;;;11.92;75.71;99977.25;5093972;28;20059;-54
2022/05/25 00:59:28;;;;;;;3.85;2.58;;;;;;;11.82;76.10;99975.59;5093911;28;20075;-52
2022/05/25 01:01:57;;;;;;;4.00;2.60;;;;;;;11.74;76.25;99977.28;5093939;28;20052;-52
2022/05/25 01:04:26;;;;;;;6.07;2.65;;;;;;;11.70;76.14;99986.66;5093850;28;20431;-51
2022/05/25 01:07:13;;;;;;;5.60;3.10;;;;;;;11.64;76.52;99993.59;5093786;28;20048;-51
2022/05/25 01:09:53;;;;;;;4.82;2.53;;;;;;;11.56;76.72;99992.44;5093166;28;20063;-52
2022/05/25 01:12:34;;;;;;;4.38;2.50;;;;;;;11.55;77.13;99991.63;5093601;28;20063;-52
2022/05/25 01:15:10;;;;;;;3.40;2.45;;;;;;;11.57;77.66;99997.69;5093947;28;20052;-53
2022/05/25 01:17:58;;;;;;;6.63;3.63;;;;;;;11.61;77.57;99999.81;5093335;28;20075;-52
2022/05/25 01:20:32;;;;;;;3.40;2.47;;;;;;;11.61;77.49;99995.03;5092807;28;20071;-53
2022/05/25 01:23:36;;;;;;;3.92;2.78;;;;;;;11.64;77.61;99997.19;5093060;28;20416;-53
2022/05/25 01:26:44;;;;;;;4.30;2.65;;;;;;;11.69;77.76;99997.00;5093872;28;20052;-52
2022/05/25 01:30:03;;;;;;;5.25;2.53;;;;;;;11.76;77.90;100002.06;5093449;28;20048;-51
2022/05/25 01:32:39;;;;;;;4.13;2.50;;;;;;;11.80;77.72;100000.25;5030619;28;20095;-52
2022/05/25 01:35:22;;;;;;;3.72;2.80;;;;;;;11.85;78.04;100004.81;5030692;28;20414;-52
2022/05/25 01:37:57;;;;;;;3.70;2.63;;;;;;;11.90;77.98;100011.06;5076121;28;20063;-52
2022/05/25 01:40:31;;;;;;;5.40;2.80;;;;;;;11.97;77.63;100016.13;5093281;28;20087;-52
2022/05/25 01:43:06;;;;;;;3.63;2.67;;;;;;;12.00;77.48;100015.47;5093116;28;20063;-52
2022/05/25 01:45:38;;;;;;;4.22;2.30;;;;;;;12.09;77.50;100009.81;5093508;28;20065;-53
2022/05/25 01:48:11;;;;;;;4.47;2.63;;;;;;;12.13;77.63;100017.19;5092953;28;20404;-53
2022/05/25 01:50:42;;;;;;;4.35;2.22;;;;;;;12.13;77.34;100016.38;5092559;28;20044;-52
2022/05/25 01:53:16;;;;;;;4.22;2.50;;;;;;;12.16;77.02;100012.94;5092892;28;20060;-52
2022/05/25 01:55:52;;;;;;;3.10;2.30;;;;;;;12.22;76.74;100016.31;5093010;28;20056;-52
2022/05/25 01:58:22;;;;;;;4.55;2.40;;;;;;;12.19;76.83;100015.84;5093066;28;20044;-54
2022/05/25 02:00:52;;;;;;;4.45;2.42;;;;;;;12.17;76.45;100015.38;5092876;28;20404;-52
2022/05/25 02:06:37;;;;;;;4.18;2.65;;;;;;;12.09;76.63;100013.44;5093821;28;20059;-52
2022/05/25 02:09:20;;;;;;;3.00;2.17;;;;;;;12.05;76.68;100006.88;5090168;28;20075;-52
2022/05/25 02:11:51;;;;;;;2.95;2.50;;;;;;;12.00;76.58;100009.06;5092386;28;20094;-53
2022/05/25 02:14:33;;;;;;;2.88;2.38;;;;;;;11.96;76.73;100003.31;5092603;28;20047;-52
2022/05/25 02:17:10;;;;;;;3.65;2.53;;;;;;;11.92;76.17;100000.38;5092850;28;20507;-52
2022/05/25 02:19:50;;;;;;;5.35;2.70;;;;;;;11.85;76.40;100002.03;5092384;28;20063;-52
2022/05/25 02:22:20;;;;;;;;;;;;;;;11.80;77.44;100011.41;5093224;28;20059;-52
2022/05/25 02:24:52;;;;;;;3.65;2.10;;;;;;;11.73;76.39;100003.53;5092365;28;19927;-52
2022/05/25 02:27:27;;;;;;;5.18;2.90;;;;;;;11.67;76.81;100002.06;5092691;28;20048;-52
2022/05/25 02:30:01;;;;;;;4.15;2.40;;;;;;;11.63;76.59;100009.47;5092257;28;20063;-52
2022/05/25 02:32:35;;;;;;;2.90;2.60;;;;;;;11.57;76.98;100010.84;5092678;28;20048;-52
2022/05/25 02:35:07;;;;;;;3.38;2.47;;;;;;;11.53;77.16;100012.66;5092315;28;20056;-52
2022/05/25 02:37:35;;;;;;;4.70;2.75;;;;;;;11.49;77.49;100009.69;5092594;28;20066;-52
2022/05/25 02:40:07;;;;;;;4.85;2.83;;;;;;;11.47;77.63;100019.56;5092517;28;20056;-52
2022/05/25 02:42:38;;;;;;;3.30;2.30;;;;;;;11.47;77.74;100020.38;5092305;28;20393;-52
2022/05/25 02:45:07;;;;;;;6.30;2.67;;;;;;;11.45;77.87;100019.06;5092525;28;20048;-51
2022/05/25 02:47:34;;;;;;;5.68;2.58;;;;;;;11.42;77.90;100025.28;5092348;28;20055;-53
2022/05/25 02:50:02;;;;;;;4.00;2.50;;;;;;;11.38;78.19;100031.53;5092313;28;20056;-52
2022/05/25 02:52:31;;;;;;;3.47;2.75;;;;;;;11.31;77.69;100031.22;5092467;28;20416;-53
2022/05/25 02:54:58;;;;;;;2.87;2.33;;;;;;;11.29;77.72;100033.50;5092129;28;20469;-52
2022/05/25 02:57:26;;;;;;;3.80;2.20;;;;;;;11.25;77.88;100032.53;5092543;28;20480;-53
2022/05/25 02:59:53;;;;;;;3.22;2.47;;;;;;;11.23;77.79;100034.00;5092127;28;20396;-52
2022/05/25 03:02:20;;;;;;;4.50;2.65;;;;;;;11.19;77.62;100036.63;5091840;28;20044;-51
2022/05/25 03:04:47;;;;;;;3.92;2.60;;;;;;;11.16;77.72;100031.72;5091886;28;20059;-52
2022/05/25 03:07:15;;;;;;;4.53;2.67;;;;;;;11.10;78.07;100035.81;5092226;28;20059;-53
2022/05/25 03:09:43;;;;;;;5.60;2.70;;;;;;;11.04;78.19;100037.13;5092109;28;20055;-53
2022/05/25 03:12:13;;;;;;;4.28;2.90;;;;;;;11.03;78.30;100038.31;5091858;28;20040;-55
2022/05/25 03:14:41;;;;;;;3.50;2.83;;;;;;;10.99;78.28;100046.50;5091674;28;20488;-52
2022/05/25 03:17:12;;;;;;;3.88;2.95;;;;;;;10.95;78.28;100042.72;5091768;28;20074;-52
2022/05/25 03:19:41;;;;;;;4.43;3.10;;;;;;;10.89;78.34;100042.06;5091694;28;20056;-54
2022/05/25 03:22:09;;;;;;;5.65;2.70;;;;;;;10.86;78.61;100047.47;5091749;28;20055;-52
2022/05/25 03:24:36;;;;;;;5.28;2.80;;;;;;;10.82;78.68;100052.06;5091811;28;20052;-54
2022/05/25 03:27:05;;;;;;;5.47;3.20;;;;;;;10.83;78.51;100059.25;5091770;28;20055;-54
2022/05/25 03:29:32;;;;;;;3.97;3.20;;;;;;;10.77;78.68;100051.06;5092068;28;20059;-52
2022/05/25 03:32:00;;;;;;;4.57;2.85;;;;;;;10.75;78.57;100056.16;5091732;28;20059;-52
2022/05/25 03:34:28;;;;;;;3.78;2.92;;;;;;;10.75;79.00;100058.09;5091560;28;20071;-52
2022/05/25 03:36:55;;;;;;;5.10;3.00;;;;;;;10.73;78.58;100066.81;5091945;28;20048;-53
2022/05/25 03:39:23;;;;;;;7.57;3.60;;;;;;;10.73;78.52;100057.59;5091813;28;20056;-52
2022/05/25 03:41:54;;;;;;;3.83;2.80;;;;;;;10.72;78.81;100070.72;5091382;28;20051;-52
2022/05/25 03:44:24;;;;;;;3.25;2.95;;;;;;;10.68;78.81;100063.34;5095357;28;20056;-52
2022/05/25 03:46:51;;;;;;;4.07;3.13;;;;;;;10.69;78.85;100074.16;5095171;28;20059;-52
2022/05/25 03:49:19;;;;;;;5.13;3.08;;;;;;;10.66;79.23;100076.78;5095524;28;20400;-52
2022/05/25 03:51:48;;;;;;;5.78;3.30;;;;;;;10.69;78.77;100078.94;5095168;28;20048;-52
2022/05/25 03:54:16;;;;;;;4.78;3.15;;;;;;;10.68;79.02;100074.47;5095031;28;20048;-54
2022/05/25 03:56:43;;;;;;;4.45;3.20;;;;;;;10.67;78.94;100078.44;5095348;28;20056;-54
2022/05/25 03:59:11;;;;;;;4.72;3.30;;;;;;;10.66;78.80;100076.78;5095461;28;20052;-54
2022/05/25 04:01:39;;;;;;;5.78;3.50;;;;;;;10.68;78.88;100080.06;5095198;28;20052;-52
2022/05/25 04:04:07;;;;;;;4.60;3.30;;;;;;;10.70;79.05;100078.56;5095204;28;20044;-52
2022/05/25 04:06:34;;;;;;;4.40;2.92;;;;;;;10.71;79.08;100079.41;5095208;28;20052;-51
2022/05/25 04:09:02;;;;;;;5.05;3.08;;;;;;;10.74;78.86;100084.31;5094871;28;20063;-53
2022/05/25 04:11:30;;;;;;;4.78;2.88;;;;;;;10.80;79.32;100080.25;5095200;28;20051;-52
2022/05/25 04:13:57;;;;;;;5.93;3.50;;;;;;;10.83;79.38;100087.13;5094634;28;20054;-51
2022/05/25 04:16:25;;;;;;;3.25;2.95;;;;;;;10.88;79.18;100089.78;5094823;28;20067;-52
2022/05/25 04:18:53;;;;;;;5.03;3.40;;;;;;;10.86;79.29;100090.09;5094596;28;20055;-51
2022/05/25 04:21:21;;;;;;;6.45;3.47;;;;;;;10.88;79.20;100092.56;5094454;28;20055;-54
2022/05/25 04:23:48;;;;;;;4.50;3.25;;;;;;;10.97;79.59;100087.78;5094489;28;20503;-53
2022/05/25 04:26:15;;;;;;;4.95;3.30;;;;;;;11.09;79.30;100092.75;5094680;28;20055;-53
2022/05/25 04:28:43;;;;;;;5.65;3.75;;;;;;;11.13;78.93;100097.31;5094580;28;20490;-55
2022/05/25 04:31:10;;;;;;;4.95;3.80;;;;;;;11.22;79.16;100094.53;5094937;28;20138;-55
2022/05/25 04:33:40;;;;;;;5.68;3.70;;;;;;;11.35;78.93;100090.75;5094480;28;20058;-53
2022/05/25 04:36:09;;;;;;;6.22;3.88;;;;;;;11.46;78.24;100093.19;5094202;28;20067;-52
2022/05/25 04:38:36;;;;;;;5.22;3.90;;;;;;;11.51;77.98;100090.25;5094753;28;20060;-52
2022/05/25 04:41:04;;;;;;;5.57;3.63;;;;;;;11.67;78.03;100094.16;5094450;28;20059;-52
2022/05/25 04:43:31;;;;;;;5.45;3.95;;;;;;;11.78;77.23;100098.25;5094214;28;20484;-53
2022/05/25 04:45:59;;;;;;;5.57;3.63;;;;;;;11.82;77.07;100086.41;5094139;28;20056;-51
2022/05/25 04:48:26;;;;;;;6.63;3.80;;;;;;;11.95;76.62;100093.81;5094499;28;20512;-53
2022/05/25 04:50:56;;;;;;;5.88;3.80;;;;;;;11.92;77.24;100097.25;5094199;28;20051;-53
2022/05/25 04:53:24;;;;;;;5.95;4.22;;;;;;;12.01;76.86;100103.63;5093888;28;20044;-52
2022/05/25 04:58:39;;;;;;;6.28;3.92;;;;;;;12.11;75.58;100103.25;5094218;28;20063;-52
2022/05/25 05:01:07;;;;;;;5.05;3.70;;;;;;;12.25;75.33;100116.19;5094161;28;20055;-53
2022/05/25 05:03:36;;;;;;;5.07;4.20;;;;;;;12.33;75.45;100116.16;5093624;28;20412;-55
2022/05/25 05:06:05;;;;;;;6.38;3.70;;;;;;;12.40;75.87;100118.41;5093985;28;20059;-51
2022/05/25 05:08:35;;;;;;;6.18;4.30;;;;;;;12.47;75.60;100115.09;5093835;28;20048;-52
2022/05/25 05:11:08;;;;;;;5.32;4.28;;;;;;;12.56;75.91;100124.28;5093826;28;20553;-53
2022/05/25 05:13:35;;;;;;;4.78;4.10;;;;;;;12.56;75.45;100119.50;5093487;28;20071;-54
2022/05/25 05:16:05;;;;;;;5.95;3.70;;;;;;;12.67;75.70;100124.72;5093763;28;20056;-54
2022/05/25 05:18:33;;;;;;;5.82;4.00;;;;;;;12.72;75.51;100127.31;5093716;28;20059;-53
2022/05/25 05:21:00;;;;;;;6.03;4.00;;;;;;;12.81;75.57;100133.69;5093631;28;20059;-52
2022/05/25 05:23:28;;;;;;;4.72;3.65;;;;;;;12.92;75.65;100125.72;5093564;28;20464;-53
2022/05/25 05:25:56;;;;;;;5.47;4.32;;;;;;;13.03;76.09;100126.13;5093526;28;20051;-52
2022/05/25 05:28:29;;;;;;;6.10;4.53;;;;;;;13.08;74.43;100128.72;5093398;28;20488;-53
2022/05/25 05:30:58;;;;;;;6.32;4.90;;;;;;;13.15;74.45;100134.59;5093671;28;20063;-52
2022/05/25 05:33:27;;;;;;;8.32;5.10;;;;;;;13.27;73.34;100134.69;5093445;28;20416;-51
2022/05/25 05:35:58;;;;;;;6.15;4.95;;;;;;;13.28;73.00;100136.31;5092580;28;20052;-52
2022/05/25 05:38:27;;;;;;;6.93;5.10;;;;;;;13.23;72.31;100132.88;5093493;28;20063;-54
2022/05/25 05:40:56;;;;;;;6.72;4.47;;;;;;;13.24;72.35;100135.34;5093066;28;20051;-52
2022/05/25 05:43:24;;;;;;;6.70;4.78;;;;;;;13.27;72.55;100143.06;5093291;28;20052;-54
2022/05/25 05:45:53;;;;;;;8.52;5.28;;;;;;;13.44;72.45;100141.31;5093072;28;20052;-52
2022/05/25 05:48:24;;;;;;;5.53;4.28;;;;;;;13.51;72.04;100141.59;5092911;28;20479;-52
2022/05/25 05:50:55;;;;;;;8.13;5.03;;;;;;;13.59;71.18;100140.69;5092854;28;20048;-52
2022/05/25 05:53:23;;;;;;;8.20;4.65;;;;;;;13.62;71.44;100141.97;5092859;28;20407;-51
2022/05/25 05:55:50;;;;;;;8.57;5.03;;;;;;;13.72;71.38;100142.38;5092894;28;20074;-52
2022/05/25 05:58:19;;;;;;;6.35;4.35;;;;;;;13.85;71.77;100146.03;5092611;28;20052;-54
2022/05/25 06:00:47;;;;;;;10.40;5.10;;;;;;;13.87;70.16;100143.72;5092707;28;20059;-52
2022/05/25 06:03:15;;;;;;;6.88;4.78;;;;;;;13.91;70.47;100143.84;5092784;28;20079;-54
2022/05/25 06:05:43;;;;;;;5.28;4.45;;;;;;;13.94;69.40;100143.13;5092624;28;20063;-53
2022/05/25 06:08:14;;;;;;;8.18;4.65;;;;;;;14.07;69.18;100144.84;5092368;28;20063;-52
2022/05/25 06:10:42;;;;;;;6.97;4.57;;;;;;;14.01;68.55;100149.81;5092728;28;20052;-55
2022/05/25 06:13:10;;;;;;;7.90;4.28;;;;;;;14.08;68.46;100154.84;5092493;28;20157;-55
2022/05/25 06:21:11;;;;;;;5.60;3.40;;;;;;;14.30;67.64;100150.84;5074615;28;20059;-51
2022/05/25 06:23:39;;;;;;;10.23;4.13;;;;;;;14.31;67.93;100157.25;5092437;28;20055;-52
2022/05/25 06:26:07;;;;;;;5.65;3.40;;;;;;;14.37;67.01;100162.28;5092541;28;20481;-54
2022/05/25 06:28:34;;;;;;;6.18;3.35;;;;;;;14.49;67.85;100169.91;5092443;28;20055;-51
2022/05/25 06:31:03;;;;;;;4.80;3.30;;;;;;;14.59;66.11;100166.66;5092289;28;20052;-51
2022/05/25 06:33:30;;;;;;;5.55;3.10;;;;;;;14.61;64.66;100163.50;5092461;28;20055;-52
2022/05/25 06:36:11;;;;;;;8.27;3.33;;;;;;;14.47;65.89;100175.03;5091568;28;20063;-52
2022/05/25 06:38:38;;;;;;;5.82;2.95;;;;;;;14.61;65.25;100178.34;5092177;28;20416;-52
2022/05/25 06:41:06;;;;;;;5.65;3.10;;;;;;;14.66;64.53;100182.06;5092368;28;20392;-53
2022/05/25 06:43:33;;;;;;;6.70;2.65;;;;;;;14.75;65.13;100180.78;5092298;28;20044;-52
2022/05/25 06:46:03;;;;;;;5.28;2.40;;;;;;;14.81;63.04;100182.19;5092324;28;20155;-53
2022/05/25 06:48:31;;;;;;;;;;;;;;;14.72;63.08;100189.06;5092852;28;20060;-52
2022/05/25 06:50:59;;;;;;;4.32;2.70;;;;;;;14.76;63.82;100188.06;5092018;28;19920;-52
2022/05/25 06:53:26;;;;;;;4.15;2.30;;;;;;;14.88;63.80;100181.59;5092323;28;20044;-52
2022/05/25 06:55:53;;;;;;;5.57;2.38;;;;;;;15.10;62.98;100187.91;5091938;28;20062;-51
2022/05/25 06:58:20;;;;;;;3.65;2.20;;;;;;;15.25;63.02;100183.59;5092248;28;20499;-53
2022/05/25 07:00:48;;;;;;;4.88;2.25;;;;;;;15.38;62.28;100183.19;5092172;28;20063;-53
2022/05/25 07:03:15;;;;;;;3.17;2.00;;;;;;;15.48;61.51;100187.50;5091612;28;20048;-52
2022/05/25 07:05:46;;;;;;;5.07;2.22;;;;;;;15.66;62.26;100185.22;5092423;28;20404;-52
2022/05/25 07:08:15;;;;;;;6.18;2.40;;;;;;;15.83;61.12;100187.78;5091783;28;20401;-55
2022/05/25 07:10:45;;;;;;;;;;;;;;;16.05;60.96;100182.75;5092735;28;20059;-52
2022/05/25 07:13:12;;;;;;;3.30;1.63;;;;;;;16.19;61.68;100177.53;5091941;28;19920;-51
2022/05/25 07:15:40;;;;;;;5.45;2.35;;;;;;;16.33;60.60;100177.09;5092347;28;20044;-53
2022/05/25 07:18:07;;;;;;;4.10;1.70;;;;;;;16.31;59.81;100184.25;5094063;28;20071;-51
2022/05/25 07:20:35;;;;;;;3.83;1.60;;;;;;;16.36;58.29;100184.00;5095841;28;20048;-51
2022/05/25 07:23:04;;;;;;;3.92;1.60;;;;;;;16.37;55.46;100185.63;5095575;28;20048;-51
2022/05/25 07:25:31;;;;;;;3.20;1.70;;;;;;;16.33;56.34;100190.34;5095888;28;20392;-51
2022/05/25 07:27:58;;;;;;;2.85;1.40;;;;;;;16.40;54.99;100187.72;5095607;28;20069;-51
2022/05/25 07:30:28;;;;;;;2.13;1.20;;;;;;;16.38;55.64;100184.47;5095901;28;20075;-52
2022/05/25 07:32:57;;;;;;;4.03;1.27;;;;;;;16.27;54.09;100177.72;5095608;28;20055;-52
2022/05/25 07:35:25;;;;;;;4.47;1.40;;;;;;;16.20;54.28;100179.16;5095076;28;20051;-52
2022/05/25 07:37:57;;;;;;;2.92;1.10;;;;;;;16.46;54.33;100203.13;5095492;28;20500;-52
2022/05/25 07:40:32;;;;;;;1.90;1.00;;;;;;;16.50;54.16;100183.56;5095660;28;20055;-52
2022/05/25 07:43:03;;;;;;;4.05;1.60;;;;;;;17.13;52.62;100191.97;5095335;28;20063;-55
2022/05/25 07:45:32;;;;;;;2.60;1.50;;;;;;;17.69;48.60;100196.47;5095490;28;20400;-54
2022/05/25 07:48:00;;;;;;;3.38;1.73;;;;;;;18.58;47.38;100190.97;5094916;28;20044;-53
2022/05/25 07:50:29;;;;;;;3.83;1.50;;;;;;;18.81;45.03;100180.50;5095374;28;20056;-54
2022/05/25 07:53:00;;;;;;;4.35;1.40;;;;;;;19.48;42.62;100177.09;5095031;28;20818;-53
2022/05/25 07:55:28;;;;;;;2.53;1.30;;;;;;;19.51;42.76;100192.47;5095598;28;20055;-52
2022/05/25 07:57:56;;;;;;;2.40;1.40;;;;;;;20.18;41.69;100188.06;5094827;28;20055;-51
2022/05/25 08:00:25;;;;;;;4.45;1.85;;;;;;;20.31;40.60;100194.31;5095269;28;20993;-53
2022/05/25 08:05:54;;;;;;;4.28;1.20;;;;;;;22.66;36.71;100191.31;5096703;28;20070;-52
2022/05/25 08:08:23;;;;;;;2.90;1.20;;;;;;;23.12;34.34;100189.72;5095065;28;20476;-52
2022/05/25 08:10:56;;;;;;;2.78;1.17;;;;;;;23.53;34.15;100177.84;5095220;28;20056;-52
2022/05/25 08:13:25;;;;;;;2.70;1.23;;;;;;;24.52;32.46;100180.69;5095203;28;20395;-52
2022/05/25 08:15:52;;;;;;;2.95;1.00;;;;;;;25.15;30.45;100185.47;5095114;28;20044;-54
2022/05/25 08:18:20;;;;;;;2.45;0.93;;;;;;;25.53;29.04;100177.78;5095033;28;20507;-52
2022/05/25 08:20:47;;;;;;;3.80;1.20;;;;;;;26.03;29.33;100184.94;5094918;28;20420;-52
2022/05/25 08:23:16;;;;;;;2.33;1.20;;;;;;;26.50;27.61;100180.22;5094409;28;20075;-55
2022/05/25 08:25:44;;;;;;;2.03;1.10;;;;;;;26.67;27.24;100180.41;5094683;28;20469;-53
2022/05/25 08:28:14;;;;;;;2.57;1.00;;;;;;;27.76;26.29;100183.78;5094184;28;20048;-53
2022/05/25 08:30:43;;;;;;;3.08;1.92;;;;;;;28.95;25.21;100165.50;5094714;28;20523;-54
2022/05/25 08:33:12;;;;;;;2.40;1.30;;;;;;;29.77;23.64;100172.41;5094418;28;20115;-53
2022/05/25 08:35:40;;;;;;;2.30;1.23;;;;;;;30.25;23.39;100174.22;5094037;28;20463;-53
2022/05/25 08:38:08;;;;;;;2.92;1.00;;;;;;;30.27;22.84;100176.66;5094155;28;20064;-53
2022/05/25 08:40:35;;;;;;;1.67;0.93;;;;;;;29.71;23.06;100180.75;5094451;28;20063;-55
2022/05/25 08:43:08;;;;;;;2.60;1.00;;;;;;;29.88;23.56;100162.22;5093725;28;20044;-54
2022/05/25 08:45:40;;;;;;;2.63;1.10;;;;;;;31.33;21.98;100165.78;5094196;28;20098;-53
2022/05/25 08:48:11;;;;;;;1.98;1.00;;;;;;;31.92;21.59;100166.09;5094065;28;20052;-56
2022/05/25 08:50:39;;;;;;;1.88;0.90;;;;;;;31.91;20.26;100175.19;5094291;28;20067;-56
2022/05/25 08:53:11;;;;;;;1.60;1.20;;;;;;;32.30;19.70;100162.16;5093845;28;20508;-54
2022/05/25 08:55:52;;;;;;;1.60;1.00;;;;;;;32.94;19.33;100166.59;5094495;28;20369;-53
2022/05/25 08:58:22;;;;;;;1.48;0.90;;;;;;;32.71;19.04;100170.84;5094094;28;20381;-56
2022/05/25 09:00:53;;;;;;;1.25;0.90;;;;;;;32.01;19.48;100182.66;5094272;28;20108;-53
2022/05/25 09:03:29;;;;;;;1.35;0.80;;;;;;;32.32;19.27;100174.03;5093244;28;20052;-56
2022/05/25 09:06:03;;;;;;;2.88;1.10;;;;;;;32.26;19.66;100164.41;5094118;28;20048;-53
2022/05/25 09:08:41;;;;;;;2.10;1.20;;;;;;;32.86;18.92;100165.28;5093962;28;20052;-53
2022/05/25 09:11:13;;;;;;;1.90;0.90;;;;;;;33.08;19.47;100174.66;5094018;28;20070;-56
2022/05/25 09:13:49;;;;;;;1.45;0.90;;;;;;;32.52;19.22;100167.06;5093901;28;20462;-53
2022/05/25 09:16:19;;;;;;;1.92;1.00;;;;;;;32.82;19.51;100165.44;5093677;28;20130;-53
2022/05/25 09:18:56;;;;;;;1.50;0.90;;;;;;;32.83;19.34;100166.25;5093767;28;20059;-53
2022/05/25 09:21:30;;;;;;;1.88;0.90;;;;;;;32.73;19.01;100160.44;5093899;28;20408;-53
2022/05/25 09:24:02;;;;;;;1.73;1.00;;;;;;;32.82;19.89;100161.75;5093250;28;20047;-55
2022/05/25 09:26:31;;;;;;;1.70;1.08;;;;;;;33.38;18.62;100163.47;5093219;28;20054;-54
2022/05/25 09:29:03;;;;;;;1.77;1.10;;;;;;;33.41;18.43;100174.06;5093198;28;20055;-53
2022/05/25 09:31:37;;;;;;;1.30;0.90;;;;;;;33.58;18.79;100163.00;5093523;28;20048;-54
2022/05/25 09:34:10;;;;;;;2.30;0.82;;;;;;;31.76;20.26;100174.94;5092900;28;20480;-54
2022/05/25 09:36:44;;;;;;;2.33;1.00;;;;;;;32.88;19.25;100171.38;5093163;28;20052;-54
2022/05/25 09:39:17;;;;;;;2.67;1.00;;;;;;;33.42;18.26;100175.66;5093150;28;20056;-53
2022/05/25 09:41:47;;;;;;;2.15;1.00;;;;;;;33.26;18.81;100173.09;5092884;28;20051;-53
2022/05/25 09:44:19;;;;;;;2.97;1.10;;;;;;;34.27;19.26;100173.06;5092735;28;20044;-53
2022/05/25 09:46:52;;;;;;;2.63;1.10;;;;;;;34.99;17.72;100183.19;5093380;28;20059;-53
2022/05/25 09:49:30;;;;;;;2.03;1.27;;;;;;;34.02;19.41;100167.59;5092849;28;20064;-54
2022/05/25 09:52:02;;;;;;;2.13;1.00;;;;;;;34.56;17.41;100180.31;5093142;28;20056;-53
2022/05/25 09:54:33;;;;;;;1.70;0.75;;;;;;;34.08;17.84;100174.34;5092835;28;20044;-56
2022/05/25 09:57:06;;;;;;;2.78;1.10;;;;;;;33.56;18.70;100183.69;5093006;28;20056;-54
2022/05/25 09:59:36;;;;;;;2.33;0.90;;;;;;;32.88;19.10;100174.25;5092432;28;20381;-55
2022/05/25 10:02:24;;;;;;;2.25;0.80;;;;;;;32.51;20.37;100183.56;5092832;28;20044;-56
2022/05/25 10:04:56;;;;;;;2.78;1.00;;;;;;;33.28;19.78;100190.72;5092940;28;20064;-55
2022/05/25 10:07:31;;;;;;;3.28;1.20;;;;;;;34.38;19.37;100184.09;5092348;28;20052;-54
2022/05/25 10:10:01;;;;;;;3.15;1.33;;;;;;;35.73;17.11;100189.28;5092761;28;20052;-56
2022/05/25 10:12:32;;;;;;;1.73;0.70;;;;;;;34.67;17.11;100179.81;5092900;28;20405;-55
2022/05/25 10:15:02;;;;;;;1.88;0.70;;;;;;;33.50;18.48;100193.47;5092805;28;20052;-56
2022/05/25 10:17:35;;;;;;;2.47;1.30;;;;;;;32.13;19.99;100199.06;5092967;28;20066;-56
2022/05/25 10:20:05;;;;;;;1.80;0.70;;;;;;;31.69;20.42;100204.81;5092570;28;20058;-54
2022/05/25 10:22:41;;;;;;;2.20;1.30;;;;;;;32.12;19.87;100196.66;5092442;28;20416;-55
2022/05/25 10:25:13;;;;;;;2.25;0.90;;;;;;;33.31;19.90;100184.81;5092291;28;20404;-56
2022/05/25 10:27:44;;;;;;;2.53;1.10;;;;;;;34.41;17.88;100185.19;5092741;28;20056;-56
2022/05/25 10:38:46;;;;;;;1.57;0.50;;;;;;;34.81;15.71;100184.88;5098468;28;20067;-53
2022/05/25 10:44:05;;;;;;;1.80;1.00;;;;;;;34.95;16.57;100180.47;5092318;28;20598;-57
2022/05/25 10:46:32;;;;;;;1.48;0.75;;;;;;;35.13;16.05;100194.84;5092597;28;20396;-51
2022/05/25 10:49:09;;;;;;;2.05;1.52;;;;;;;32.49;18.30;100191.09;5092252;28;20052;-53
2022/05/25 10:51:43;;;;;;;1.25;0.80;;;;;;;33.07;17.19;100187.47;5093840;28;20059;-55
2022/05/25 10:57:25;;;;;;;2.60;1.00;;;;;;;33.95;16.88;100186.09;5096509;28;20059;-54
2022/05/25 11:00:03;;;;;;;3.08;0.90;;;;;;;33.01;17.27;100182.78;5093450;28;20177;-53
2022/05/25 11:03:04;;;;;;;2.20;1.08;;;;;;;33.31;17.63;100181.91;5096336;28;20060;-53
2022/05/25 11:05:41;;;;;;;1.70;0.90;;;;;;;34.69;16.50;100178.06;5092813;28;20055;-53
2022/05/25 11:08:16;;;;;;;1.55;0.80;;;;;;;35.29;16.31;100179.13;5095917;28;20404;-53
2022/05/25 11:10:50;;;;;;;1.08;0.50;;;;;;;34.90;16.20;100189.81;5096417;28;20048;-53
2022/05/25 11:13:57;;;;;;;1.65;0.80;;;;;;;32.64;18.55;100177.72;5096001;28;20394;-53
2022/05/25 11:16:34;;;;;;;1.10;0.60;;;;;;;31.49;19.86;100196.47;5032968;28;20049;-56
2022/05/25 11:19:28;;;;;;;2.75;0.70;;;;;;;30.41;20.43;100192.66;5089274;28;20044;-53
2022/05/25 11:22:09;;;;;;;3.17;0.70;;;;;;;29.67;20.94;100194.38;5096095;28;20052;-53
2022/05/25 11:24:53;;;;;;;1.30;0.60;;;;;;;29.67;21.95;100202.97;5095960;28;20056;-53
2022/05/25 11:27:35;;;;;;;1.75;0.63;;;;;;;29.00;21.68;100207.22;5095377;28;20052;-53
2022/05/25 11:30:10;;;;;;;1.40;1.10;;;;;;;30.80;21.31;100204.97;5095953;28;20052;-53
2022/05/25 11:32:58;;;;;;;1.70;0.68;;;;;;;31.44;19.82;100202.84;5095654;28;20052;-53
2022/05/25 11:35:40;;;;;;;2.93;0.90;;;;;;;32.26;19.29;100201.88;5094993;28;20052;-52
2022/05/25 11:38:19;;;;;;;1.60;0.77;;;;;;;32.00;17.27;100200.41;5095256;28;20063;-53
2022/05/25 11:40:55;;;;;;;2.40;1.10;;;;;;;32.70;17.51;100207.56;5095692;28;20495;-53
2022/05/25 11:43:42;;;;;;;1.10;0.80;;;;;;;33.59;17.19;100189.78;5095507;28;20511;-53
2022/05/25 11:46:17;;;;;;;1.90;0.40;;;;;;;33.61;16.90;100184.38;5095359;28;20467;-56
2022/05/25 11:49:13;;;;;;;2.78;0.68;;;;;;;32.61;17.71;100204.63;5095221;28;20052;-55
2022/05/25 11:51:49;;;;;;;2.20;0.65;;;;;;;32.72;18.10;100193.47;5095192;28;20063;-54
2022/05/25 11:54:30;;;;;;;2.65;0.70;;;;;;;31.68;19.86;100202.38;5095240;28;20055;-56
2022/05/25 11:57:06;;;;;;;2.95;0.68;;;;;;;31.31;19.10;100197.09;5095551;28;20055;-53
2022/05/25 12:00:11;;;;;;;3.03;0.73;;;;;;;30.44;20.82;100203.25;5095431;28;20052;-53
2022/05/25 12:02:50;;;;;;;1.25;0.70;;;;;;;30.24;20.57;100200.53;5089445;28;20074;-55
2022/05/25 12:05:26;;;;;;;1.30;0.60;;;;;;;30.48;20.76;100203.94;5094731;28;20048;-53
2022/05/25 12:08:11;;;;;;;3.90;0.88;;;;;;;30.61;20.08;100198.19;5094972;28;20075;-56
2022/05/25 12:10:43;;;;;;;1.38;0.80;;;;;;;31.27;20.72;100189.84;5095499;28;20055;-53
2022/05/25 12:13:15;;;;;;;1.92;0.85;;;;;;;31.06;19.92;100195.06;5094936;28;20052;-53
2022/05/25 12:15:58;;;;;;;2.25;0.90;;;;;;;31.11;20.09;100197.34;5094637;28;20056;-53
2022/05/25 12:18:33;;;;;;;2.35;1.10;;;;;;;31.70;19.89;100194.09;5094905;28;20059;-53
2022/05/25 12:21:05;;;;;;;3.60;0.90;;;;;;;31.90;18.77;100191.69;5095105;28;20051;-53